San Isidro, Argentina
Current Conditions -  °F | °C
As of 3:00 PM on Wednesday 26 Nov 2014 (Local Time) from SANT Reporting Station
Broken Clouds Broken Clouds  
Wind Chill: 75°   Ceiling: 4500
Heat Index: 75°   Visibility: 6mi
Dew Point: 64°   Wind: 6mph
Humidity: 69%   Direction: 140°SE
Pressure: 29.97"   Gusts: NA
Location:  28.45°S, 65.73°W
Report Text: SANT 261800Z 14005KT 9000 SCT025 BKN04524/18 Q1015
Loading
Personal Weather Stations






























Interactive Weather Map New forecast layout! Learn more

10-Day Weather Forecast

Advertisements
Track Severe Weather on mobile